createdAt,value
2023-03-21T00:02:24.180Z,39.30
2023-03-21T00:05:15.738Z,37.85
2023-03-21T00:08:05.641Z,38.65
2023-03-21T00:10:59.472Z,39.83
2023-03-21T00:13:44.806Z,42.40
2023-03-21T00:16:35.471Z,47.08
2023-03-21T00:19:27.813Z,41.90
2023-03-21T00:22:13.501Z,45.22
2023-03-21T00:24:59.289Z,47.47
2023-03-21T00:28:01.203Z,49.70
2023-03-21T00:30:51.863Z,44.67
2023-03-21T00:33:39.517Z,40.33
2023-03-21T00:36:27.706Z,41.35
2023-03-21T00:39:14.392Z,51.45
2023-03-21T00:42:00.115Z,51.13
2023-03-21T00:44:45.687Z,57.10
2023-03-21T00:47:31.273Z,53.40
2023-03-21T00:50:16.801Z,64.72
2023-03-21T00:53:02.272Z,64.20
2023-03-21T00:55:48.539Z,68.45
2023-03-21T00:58:33.880Z,62.13
2023-03-21T01:01:19.557Z,67.13
2023-03-21T01:04:07.586Z,66.28
2023-03-21T01:06:55.028Z,67.30
2023-03-21T01:09:40.489Z,61.15
2023-03-21T01:12:25.914Z,64.97
2023-03-21T01:15:11.669Z,60.65
2023-03-21T01:17:59.601Z,67.85
2023-03-21T01:20:45.838Z,56.45
2023-03-21T01:23:31.469Z,57.08
2023-03-21T01:26:17.000Z,64.90
2023-03-21T01:29:04.660Z,69.15
2023-03-21T01:31:50.110Z,68.32
2023-03-21T01:34:36.285Z,67.97
2023-03-21T01:37:21.464Z,75.07
2023-03-21T01:40:12.645Z,67.65
2023-03-21T01:42:59.318Z,69.25
2023-03-21T01:46:09.767Z,67.07
2023-03-21T01:49:26.466Z,66.43
2023-03-21T01:52:35.921Z,60.30
2023-03-21T01:55:24.451Z,63.13
2023-03-21T01:58:18.582Z,67.57
2023-03-21T02:01:22.793Z,52.08
2023-03-21T02:04:11.990Z,50.47
2023-03-21T02:07:25.810Z,52.65
2023-03-21T02:10:17.073Z,41.53
2023-03-21T02:13:12.463Z,47.90
2023-03-21T02:16:14.142Z,43.42
2023-03-21T02:19:25.971Z,38.80
2023-03-21T02:22:49.763Z,39.40
2023-03-21T02:26:11.687Z,45.00
2023-03-21T02:29:19.939Z,39.83
2023-03-21T02:32:20.237Z,39.13
2023-03-21T02:35:44.103Z,43.65
2023-03-21T02:39:08.966Z,48.17
2023-03-21T02:42:01.295Z,48.55
2023-03-21T02:45:21.904Z,47.45
2023-03-21T02:48:29.183Z,43.83
2023-03-21T02:51:21.545Z,44.00
2023-03-21T02:54:30.375Z,45.67
2023-03-21T02:57:25.355Z,44.10
2023-03-21T03:00:18.930Z,48.33
2023-03-21T03:03:09.922Z,38.28
2023-03-21T03:06:00.822Z,45.05
2023-03-21T03:09:07.237Z,38.17
2023-03-21T03:12:11.640Z,39.38
2023-03-21T03:15:33.457Z,50.78
2023-03-21T04:26:32.958Z,41.70
2023-03-21T04:29:46.911Z,43.92
2023-03-21T04:33:01.156Z,38.45
2023-03-21T04:35:50.403Z,37.95
2023-03-21T04:38:37.078Z,43.00
2023-03-21T04:41:26.526Z,44.60
2023-03-21T04:44:16.412Z,37.97
2023-03-21T04:47:02.272Z,41.30
2023-03-21T04:49:51.706Z,46.45
2023-03-21T04:52:37.021Z,43.33
2023-03-21T04:55:25.056Z,47.90
2023-03-21T04:58:12.004Z,38.83
2023-03-21T05:01:02.503Z,37.55
2023-03-21T05:03:48.171Z,45.33
2023-03-21T05:06:34.613Z,49.53
2023-03-21T05:09:20.450Z,52.30
2023-03-21T05:12:06.396Z,44.78
2023-03-21T05:14:53.342Z,46.53
2023-03-21T05:17:38.727Z,48.33
2023-03-21T05:20:25.775Z,50.05
2023-03-21T05:23:18.716Z,43.58
2023-03-21T05:26:07.074Z,48.17
2023-03-21T05:29:11.275Z,48.30
2023-03-21T05:31:58.474Z,44.30
2023-03-21T05:34:46.859Z,42.53
2023-03-21T05:37:32.915Z,48.75
2023-03-21T05:40:19.176Z,39.50
2023-03-21T05:43:05.116Z,51.50
2023-03-21T05:45:54.626Z,40.83
2023-03-21T05:48:39.943Z,43.47
2023-03-21T05:51:31.630Z,39.80
2023-03-21T05:54:22.772Z,39.35
2023-03-21T05:57:09.273Z,41.50
2023-03-21T06:00:18.091Z,37.10
2023-03-21T06:03:14.345Z,36.78
2023-03-21T06:06:18.702Z,38.08
2023-03-21T06:09:18.118Z,34.50
2023-03-21T06:12:12.445Z,40.42
2023-03-21T06:15:11.982Z,42.70
2023-03-21T06:18:09.505Z,44.35
2023-03-21T06:20:59.137Z,41.33
2023-03-21T06:23:45.157Z,45.90
2023-03-21T06:26:30.696Z,35.33
2023-03-21T06:29:16.168Z,37.97
2023-03-21T06:32:07.537Z,39.58
2023-03-21T06:34:53.248Z,40.90
2023-03-21T06:37:49.316Z,38.25
2023-03-21T06:40:34.964Z,37.30
2023-03-21T06:43:20.793Z,42.25
2023-03-21T06:46:06.602Z,35.90
2023-03-21T06:48:52.795Z,33.92
2023-03-21T06:51:39.451Z,32.60
2023-03-21T06:54:30.916Z,33.90
2023-03-21T06:57:23.511Z,40.78
2023-03-21T07:00:10.105Z,32.47
2023-03-21T07:03:02.054Z,35.33
2023-03-21T07:05:48.272Z,31.15
2023-03-21T07:08:35.342Z,40.88
2023-03-21T07:11:22.455Z,38.03
2023-03-21T07:14:08.526Z,39.85
2023-03-21T07:16:58.251Z,37.67
2023-03-21T07:19:44.873Z,35.97
2023-03-21T07:22:30.503Z,31.13
2023-03-21T07:25:17.530Z,31.92
2023-03-21T07:28:09.254Z,45.13
2023-03-21T07:31:09.293Z,44.95
2023-03-21T07:33:54.860Z,40.50
2023-03-21T07:36:44.155Z,32.65
2023-03-21T07:39:30.197Z,31.95
2023-03-21T07:42:15.796Z,33.95
2023-03-21T07:45:01.504Z,35.03
2023-03-21T07:47:51.972Z,34.78
2023-03-21T07:50:37.738Z,33.70
2023-03-21T07:53:28.908Z,29.55
2023-03-21T07:56:14.496Z,29.33
2023-03-21T07:59:00.309Z,33.58
2023-03-21T08:01:45.965Z,29.85
2023-03-21T08:04:33.108Z,36.55
2023-03-21T08:07:19.398Z,30.77
2023-03-21T08:10:05.334Z,27.40
2023-03-21T08:12:51.392Z,31.30
2023-03-21T08:15:42.096Z,30.58
2023-03-21T08:18:27.828Z,27.90
2023-03-21T08:21:13.026Z,25.75
2023-03-21T08:23:58.501Z,29.65
2023-03-21T08:26:46.243Z,21.02
2023-03-21T08:29:31.880Z,26.60
2023-03-21T08:32:19.443Z,24.75
2023-03-21T08:35:10.243Z,28.73
2023-03-21T08:37:59.430Z,20.17
2023-03-21T08:40:44.993Z,28.73
2023-03-21T08:43:30.601Z,26.02
2023-03-21T08:46:17.604Z,24.33
2023-03-21T08:49:03.371Z,22.75
2023-03-21T08:51:49.029Z,20.42
2023-03-21T08:54:34.899Z,23.35
2023-03-21T08:57:20.685Z,21.75
2023-03-21T09:00:14.681Z,19.00
2023-03-21T09:02:59.932Z,19.95
2023-03-21T09:05:45.609Z,17.27
2023-03-21T09:08:31.205Z,19.70
2023-03-21T09:11:16.660Z,22.48
2023-03-21T09:14:02.176Z,18.85
2023-03-21T09:16:51.036Z,18.40
2023-03-21T09:19:38.046Z,21.35
2023-03-21T09:22:23.727Z,25.83
2023-03-21T09:25:11.498Z,17.33
2023-03-21T09:27:58.083Z,20.10
2023-03-21T09:30:47.994Z,18.55
2023-03-21T09:33:35.223Z,20.83
2023-03-21T09:36:22.008Z,21.77
2023-03-21T09:39:07.373Z,17.83
2023-03-21T09:42:13.113Z,23.80
2023-03-21T09:45:09.199Z,20.08
2023-03-21T09:47:57.271Z,22.02
2023-03-21T09:50:43.329Z,23.08
2023-03-21T09:53:42.061Z,27.88
2023-03-21T09:56:30.495Z,20.42
2023-03-21T09:59:33.366Z,19.58
2023-03-21T10:02:35.927Z,23.10
2023-03-21T10:05:25.097Z,22.02
2023-03-21T10:08:19.453Z,19.23
2023-03-21T10:11:27.836Z,22.67
2023-03-21T10:14:22.730Z,22.98
2023-03-21T10:17:16.925Z,20.92
2023-03-21T10:20:23.649Z,23.63
2023-03-21T10:23:14.573Z,19.92
2023-03-21T10:26:02.890Z,24.02
2023-03-21T10:28:53.069Z,23.23
2023-03-21T10:31:43.859Z,22.02
2023-03-21T10:34:38.205Z,25.38
2023-03-21T10:37:27.284Z,26.02
2023-03-21T10:40:17.397Z,21.85
2023-03-21T10:43:29.724Z,24.25
2023-03-21T10:46:23.822Z,22.38
2023-03-21T10:49:09.568Z,23.35
2023-03-21T10:51:59.529Z,24.15
2023-03-21T10:54:47.473Z,19.88
2023-03-21T10:57:33.387Z,23.85
2023-03-21T11:00:27.888Z,23.73
2023-03-21T11:03:24.317Z,24.13
2023-03-21T11:06:36.723Z,16.65
2023-03-21T11:09:25.502Z,18.67
2023-03-21T11:12:13.966Z,21.60
2023-03-21T11:15:29.077Z,27.92
2023-03-21T11:18:23.488Z,19.95
2023-03-21T11:21:11.719Z,18.73
2023-03-21T11:24:04.134Z,18.48
2023-03-21T11:26:51.366Z,16.52
2023-03-21T11:29:46.151Z,17.35
2023-03-21T11:32:39.022Z,15.73
2023-03-21T11:35:59.967Z,12.50
2023-03-21T11:38:50.329Z,20.05
2023-03-21T11:41:40.047Z,20.95
2023-03-21T11:44:46.241Z,15.10
2023-03-21T11:47:31.909Z,16.85
2023-03-21T11:50:49.822Z,19.00
2023-03-21T11:54:13.183Z,17.40
2023-03-21T11:57:22.962Z,15.70
2023-03-21T12:00:13.918Z,17.25
2023-03-21T12:03:47.169Z,17.08
2023-03-21T12:06:38.538Z,19.35
2023-03-21T12:09:41.812Z,17.83
2023-03-21T12:12:44.703Z,11.48
2023-03-21T12:15:50.032Z,14.90
2023-03-21T12:19:01.802Z,17.73
2023-03-21T12:21:50.217Z,13.68
2023-03-21T12:24:53.709Z,10.20
2023-03-21T12:27:48.073Z,18.45
2023-03-21T12:30:39.833Z,13.00
2023-03-21T12:33:40.539Z,14.70
2023-03-21T12:36:38.053Z,12.82
2023-03-21T12:39:31.956Z,15.20
2023-03-21T12:42:40.414Z,14.23
2023-03-21T12:45:47.256Z,16.48
2023-03-21T12:48:55.191Z,13.25
2023-03-21T12:51:49.398Z,16.77
2023-03-21T12:54:44.723Z,15.85
2023-03-21T12:57:44.665Z,16.08
2023-03-21T13:00:42.466Z,19.10
2023-03-21T13:03:43.827Z,18.23
2023-03-21T13:06:30.352Z,16.95
2023-03-21T13:09:37.754Z,16.42
2023-03-21T13:12:41.940Z,21.40
2023-03-21T13:16:02.400Z,14.98
2023-03-21T13:19:13.870Z,18.42
2023-03-21T13:22:21.530Z,18.90
2023-03-21T13:25:20.874Z,16.83
2023-03-21T13:28:06.571Z,14.73
2023-03-21T13:30:52.738Z,13.63
2023-03-21T13:33:44.644Z,13.68
2023-03-21T13:36:31.891Z,15.95
2023-03-21T13:39:20.884Z,22.95
2023-03-21T13:42:29.129Z,12.82
2023-03-21T13:45:28.892Z,14.27
2023-03-21T13:48:49.441Z,9.95
2023-03-21T13:51:45.750Z,10.75
2023-03-21T13:54:53.102Z,13.57
2023-03-21T13:57:39.320Z,13.27
2023-03-21T14:00:30.361Z,15.05
2023-03-21T14:03:20.729Z,11.50
2023-03-21T14:06:08.105Z,14.98
2023-03-21T14:08:53.725Z,17.10
2023-03-21T14:11:44.452Z,15.20
2023-03-21T14:14:51.299Z,15.70
2023-03-21T14:17:37.006Z,13.80
2023-03-21T14:20:26.901Z,14.63
2023-03-21T14:23:16.385Z,14.82
2023-03-21T14:26:02.322Z,12.38
2023-03-21T14:28:51.166Z,11.00
2023-03-21T14:31:46.867Z,10.45
2023-03-21T14:34:37.564Z,17.23
2023-03-21T14:37:33.990Z,11.60
2023-03-21T14:40:30.655Z,16.92
2023-03-21T14:43:16.469Z,14.85
2023-03-21T14:46:02.024Z,13.70
2023-03-21T14:48:47.265Z,18.05
2023-03-21T14:51:32.882Z,15.40
2023-03-21T14:54:19.488Z,9.50
2023-03-21T14:57:10.531Z,15.85
2023-03-21T15:00:00.901Z,15.10
2023-03-21T15:02:46.378Z,15.90
2023-03-21T15:05:34.550Z,13.35
2023-03-21T15:08:22.230Z,11.45
2023-03-21T15:11:12.803Z,13.23
2023-03-21T15:14:06.701Z,14.93
2023-03-21T15:16:53.849Z,11.50
2023-03-21T15:19:46.473Z,14.38
2023-03-21T15:22:39.559Z,16.33
2023-03-21T15:25:43.129Z,16.38
2023-03-21T15:28:28.565Z,20.58
2023-03-21T15:31:34.651Z,14.32
2023-03-21T15:34:27.737Z,12.50
2023-03-21T15:37:25.115Z,9.95
2023-03-21T15:40:21.474Z,18.88
2023-03-21T15:43:16.483Z,9.18
2023-03-21T15:46:02.090Z,6.75
2023-03-21T15:48:47.780Z,12.45
2023-03-21T15:51:33.600Z,13.05
2023-03-21T15:54:24.759Z,9.25
2023-03-21T15:57:20.243Z,7.68
2023-03-21T16:03:21.505Z,9.95
2023-03-21T16:06:17.575Z,8.65
2023-03-21T16:09:23.715Z,9.65
2023-03-21T16:12:12.839Z,10.55
2023-03-21T16:15:07.495Z,6.55
2023-03-21T16:17:58.136Z,8.52
2023-03-21T16:20:46.087Z,5.55
2023-03-21T16:23:31.610Z,7.25
2023-03-21T16:26:20.721Z,10.13
2023-03-21T16:29:11.527Z,9.93
2023-03-21T16:31:57.078Z,12.05
2023-03-21T16:34:45.216Z,9.10
2023-03-21T16:37:30.754Z,11.95
2023-03-21T16:40:28.919Z,7.68
2023-03-21T16:43:14.353Z,11.70
2023-03-21T16:46:00.293Z,10.90
2023-03-21T16:48:51.338Z,10.63
2023-03-21T16:51:37.262Z,9.25
2023-03-21T16:54:23.181Z,15.10
2023-03-21T16:57:19.449Z,8.98
2023-03-21T17:00:15.230Z,8.93
2023-03-21T17:03:02.673Z,8.68
2023-03-21T17:05:48.196Z,8.68
2023-03-21T17:08:33.533Z,20.42
2023-03-21T17:11:21.896Z,5.97
2023-03-21T17:14:09.542Z,10.57
2023-03-21T17:16:55.369Z,11.57
2023-03-21T17:19:40.883Z,13.38
2023-03-21T17:22:26.207Z,9.77
2023-03-21T17:25:15.695Z,10.00
2023-03-21T17:28:01.085Z,10.77
2023-03-21T17:30:46.817Z,11.05
2023-03-21T17:33:32.036Z,11.48
2023-03-21T17:36:25.409Z,8.35
2023-03-21T17:39:25.143Z,9.57
2023-03-21T17:42:18.598Z,13.82
2023-03-21T17:45:04.068Z,12.52
2023-03-21T17:47:50.598Z,12.00
2023-03-21T17:50:37.564Z,12.27
2023-03-21T17:53:23.472Z,14.32
2023-03-21T17:56:19.820Z,11.25
2023-03-21T17:59:10.862Z,6.43
2023-03-21T18:01:58.423Z,14.52
2023-03-21T18:04:43.982Z,9.93
2023-03-21T18:08:02.053Z,9.27
2023-03-21T18:10:35.603Z,9.57
2023-03-21T18:13:22.239Z,11.38
2023-03-21T18:16:12.947Z,6.35
2023-03-21T18:18:58.548Z,10.95
2023-03-21T18:21:47.428Z,13.30
2023-03-21T18:24:32.403Z,7.95
2023-03-21T18:27:18.500Z,6.88
2023-03-21T18:30:41.169Z,15.88
2023-03-21T18:33:12.279Z,8.30
2023-03-21T18:35:59.451Z,15.90
2023-03-21T18:38:46.008Z,13.20
2023-03-21T18:41:31.820Z,14.15
2023-03-21T18:44:20.879Z,18.17
2023-03-21T18:47:12.658Z,15.48
2023-03-21T18:50:13.835Z,10.15
2023-03-21T18:53:00.234Z,19.67
2023-03-21T18:55:47.915Z,14.20
2023-03-21T18:58:34.722Z,13.82
2023-03-21T19:01:20.843Z,13.88
2023-03-21T19:04:20.850Z,10.25
2023-03-21T19:07:08.739Z,16.02
2023-03-21T19:10:15.990Z,16.00
2023-03-21T19:13:00.328Z,17.77
2023-03-21T19:15:52.850Z,15.48
2023-03-21T19:18:54.074Z,14.68
2023-03-21T19:21:42.037Z,17.88
2023-03-21T19:24:29.086Z,16.00
2023-03-21T19:27:14.903Z,18.05
2023-03-21T19:30:14.005Z,13.88
2023-03-21T19:33:00.256Z,15.73
2023-03-21T19:35:46.527Z,13.95
2023-03-21T19:38:32.669Z,21.50
2023-03-21T19:41:20.252Z,17.00
2023-03-21T19:44:05.969Z,12.82
2023-03-21T19:46:51.306Z,16.52
2023-03-21T19:50:20.855Z,16.10
2023-03-21T19:52:42.981Z,16.95
2023-03-21T19:55:28.590Z,20.50
2023-03-21T19:58:21.817Z,14.13
2023-03-21T20:01:11.377Z,16.88
2023-03-21T20:03:57.092Z,17.92
2023-03-21T20:06:43.501Z,16.23
2023-03-21T20:09:50.603Z,15.18
2023-03-21T20:12:36.195Z,18.63
2023-03-21T20:15:24.883Z,15.13
2023-03-21T20:18:14.174Z,15.60
2023-03-21T20:21:02.030Z,17.85
2023-03-21T20:23:51.016Z,11.52
2023-03-21T20:26:57.332Z,14.93
2023-03-21T20:32:49.454Z,16.00
2023-03-21T20:36:23.028Z,9.63
2023-03-21T20:38:39.971Z,17.58
2023-03-21T20:41:25.706Z,13.63
2023-03-21T20:44:47.972Z,15.35
2023-03-21T20:47:30.187Z,9.88
2023-03-21T20:50:15.803Z,15.57
2023-03-21T20:53:07.312Z,11.68
2023-03-21T20:55:53.729Z,14.35
2023-03-21T20:58:59.478Z,11.48
2023-03-21T21:01:47.061Z,14.30
2023-03-21T21:04:49.836Z,13.43
2023-03-21T21:07:42.878Z,12.40
2023-03-21T21:10:28.944Z,14.95
2023-03-21T21:13:14.159Z,11.60
2023-03-21T21:16:00.135Z,15.05
2023-03-21T21:18:46.157Z,10.80
2023-03-21T21:21:33.093Z,15.50
2023-03-21T21:24:19.048Z,17.60
2023-03-21T21:27:06.600Z,17.58
2023-03-21T21:29:52.332Z,11.00
2023-03-21T21:32:43.244Z,19.55
2023-03-21T21:35:28.926Z,15.02
2023-03-21T21:38:19.363Z,18.23
2023-03-21T21:41:05.076Z,14.70
2023-03-21T21:43:51.418Z,18.63
2023-03-21T21:46:36.791Z,18.70
2023-03-21T21:49:25.117Z,17.50
2023-03-21T21:52:13.545Z,23.60
2023-03-21T21:54:59.040Z,16.40
2023-03-21T21:57:46.895Z,15.52
2023-03-21T22:00:33.040Z,13.48
2023-03-21T22:03:21.980Z,12.05
2023-03-21T22:06:09.705Z,18.38
2023-03-21T22:08:56.945Z,15.68
2023-03-21T22:11:42.412Z,16.10
2023-03-21T22:14:27.917Z,15.43
2023-03-21T22:17:19.737Z,14.77
2023-03-21T22:20:09.787Z,17.00
2023-03-21T22:22:56.842Z,16.15
2023-03-21T22:25:43.321Z,22.17
2023-03-21T22:28:31.786Z,12.77
2023-03-21T22:31:18.107Z,16.75
2023-03-21T22:34:03.430Z,14.15
2023-03-21T22:36:50.151Z,15.65
2023-03-21T22:39:35.811Z,16.20
2023-03-21T22:42:20.982Z,10.90
2023-03-21T22:45:08.697Z,15.00
2023-03-21T22:47:54.313Z,17.77
2023-03-21T22:50:43.802Z,20.85
2023-03-21T22:53:29.766Z,27.55
2023-03-21T22:56:18.165Z,24.80
2023-03-21T22:59:04.517Z,16.67
2023-03-21T23:01:50.295Z,19.60
2023-03-21T23:04:36.548Z,20.13
2023-03-21T23:07:22.207Z,11.13
2023-03-21T23:10:08.318Z,11.63
2023-03-21T23:12:53.753Z,17.55
2023-03-21T23:15:39.930Z,14.60
2023-03-21T23:18:25.428Z,20.02
2023-03-21T23:21:13.291Z,10.02
2023-03-21T23:23:59.273Z,18.02
2023-03-21T23:26:45.011Z,13.25
2023-03-21T23:29:30.572Z,15.75
2023-03-21T23:32:18.788Z,20.75
2023-03-21T23:35:10.883Z,15.55
2023-03-21T23:37:58.741Z,21.58
2023-03-21T23:40:44.158Z,16.52
2023-03-21T23:43:32.259Z,16.15
2023-03-21T23:46:18.697Z,12.18
2023-03-21T23:49:04.070Z,20.20
2023-03-21T23:51:50.308Z,15.43
2023-03-21T23:54:35.873Z,21.80
2023-03-21T23:57:21.948Z,16.23
